createdAt,value
2022-11-07T00:02:22.936Z,10.15
2022-11-07T00:04:53.696Z,10.73
2022-11-07T00:07:23.912Z,10.75
2022-11-07T00:09:54.160Z,12.48
2022-11-07T00:12:25.452Z,11.60
2022-11-07T00:14:56.131Z,12.45
2022-11-07T00:17:26.222Z,12.25
2022-11-07T00:19:56.617Z,11.10
2022-11-07T00:22:27.283Z,12.30
2022-11-07T00:24:57.335Z,10.10
2022-11-07T00:27:27.487Z,11.57
2022-11-07T00:29:57.472Z,12.30
2022-11-07T00:32:27.485Z,13.07
2022-11-07T00:34:57.532Z,13.60
2022-11-07T00:37:27.808Z,12.55
2022-11-07T00:39:58.178Z,11.38
2022-11-07T00:42:32.958Z,14.60
2022-11-07T00:45:03.524Z,15.98
2022-11-07T00:47:34.051Z,14.75
2022-11-07T00:50:04.438Z,14.35
2022-11-07T00:52:34.481Z,13.60
2022-11-07T00:55:04.706Z,13.98
2022-11-07T00:57:34.716Z,13.07
2022-11-07T01:00:04.941Z,11.10
2022-11-07T01:02:36.305Z,10.38
2022-11-07T01:05:13.190Z,11.68
2022-11-07T01:07:43.504Z,13.55
2022-11-07T01:10:13.543Z,10.82
2022-11-07T01:12:43.533Z,12.65
2022-11-07T01:15:13.678Z,13.88
2022-11-07T01:17:43.766Z,11.27
2022-11-07T01:20:16.704Z,9.75
2022-11-07T01:22:46.815Z,11.82
2022-11-07T01:25:17.362Z,9.98
2022-11-07T01:27:47.407Z,10.00
2022-11-07T01:30:43.596Z,9.95
2022-11-07T01:33:13.939Z,8.75
2022-11-07T01:35:44.112Z,9.57
2022-11-07T01:38:31.436Z,10.43
2022-11-07T01:41:19.692Z,11.13
2022-11-07T01:43:51.605Z,12.23
2022-11-07T01:46:21.910Z,10.43
2022-11-07T01:49:11.948Z,12.93
2022-11-07T01:51:49.528Z,9.45
2022-11-07T01:54:20.195Z,12.15
2022-11-07T01:56:51.395Z,10.93
2022-11-07T01:59:24.032Z,10.77
2022-11-07T02:01:56.889Z,9.70
2022-11-07T02:04:27.848Z,10.25
2022-11-07T02:07:10.250Z,8.15
2022-11-07T02:09:40.297Z,9.13
2022-11-07T02:12:30.511Z,8.98
2022-11-07T02:15:00.475Z,8.77
2022-11-07T02:17:30.763Z,7.90
2022-11-07T02:20:12.211Z,7.85
2022-11-07T02:22:56.430Z,8.25
2022-11-07T02:25:26.399Z,8.05
2022-11-07T02:28:01.553Z,8.60
2022-11-07T02:30:32.429Z,8.45
2022-11-07T02:33:11.231Z,8.27
2022-11-07T02:35:41.499Z,8.40
2022-11-07T02:38:15.853Z,9.07
2022-11-07T02:40:46.115Z,8.93
2022-11-07T02:43:16.894Z,8.88
2022-11-07T02:45:47.535Z,9.82
2022-11-07T02:48:44.905Z,11.65
2022-11-07T02:51:15.116Z,10.02
2022-11-07T02:53:45.129Z,11.55
2022-11-07T02:56:15.158Z,9.85
2022-11-07T02:58:45.254Z,11.75
2022-11-07T03:01:15.367Z,10.65
2022-11-07T03:03:46.021Z,10.77
2022-11-07T03:06:16.846Z,11.13
2022-11-07T03:08:47.314Z,10.25
2022-11-07T03:11:20.790Z,9.77
2022-11-07T03:13:51.186Z,10.23
2022-11-07T03:16:21.345Z,11.35
2022-11-07T03:18:51.321Z,11.68
2022-11-07T03:21:21.712Z,11.70
2022-11-07T03:23:58.652Z,11.48
2022-11-07T03:26:28.712Z,11.57
2022-11-07T03:29:00.476Z,10.52
2022-11-07T03:31:30.583Z,10.02
2022-11-07T03:34:03.005Z,10.88
2022-11-07T03:36:33.138Z,9.95
2022-11-07T03:39:03.256Z,10.73
2022-11-07T03:41:33.328Z,9.65
2022-11-07T03:44:03.555Z,9.43
2022-11-07T03:46:33.740Z,10.25
2022-11-07T03:49:03.926Z,10.35
2022-11-07T03:51:34.071Z,12.20
2022-11-07T03:54:04.259Z,10.43
2022-11-07T03:56:34.319Z,10.25
2022-11-07T03:59:04.443Z,10.65
2022-11-07T04:01:34.749Z,12.00
2022-11-07T04:04:04.894Z,11.77
2022-11-07T04:06:34.952Z,10.80
2022-11-07T04:09:05.005Z,11.95
2022-11-07T04:12:45.343Z,11.73
2022-11-07T04:15:35.196Z,11.93
2022-11-07T04:18:12.027Z,12.02
2022-11-07T04:20:42.207Z,11.52
2022-11-07T04:23:12.543Z,10.48
2022-11-07T04:26:01.555Z,10.70
2022-11-07T04:28:34.747Z,10.30
2022-11-07T04:31:09.547Z,10.82
2022-11-07T04:33:43.063Z,10.98
2022-11-07T04:36:37.664Z,12.93
2022-11-07T04:39:08.573Z,11.27
2022-11-07T04:41:38.913Z,10.68
2022-11-07T04:44:09.381Z,10.77
2022-11-07T04:46:42.277Z,10.95
2022-11-07T04:49:16.300Z,11.77
2022-11-07T04:51:48.078Z,10.85
2022-11-07T04:54:18.279Z,13.65
2022-11-07T04:56:48.435Z,11.80
2022-11-07T04:59:18.519Z,12.80
2022-11-07T05:01:49.051Z,12.00
2022-11-07T05:04:19.535Z,11.85
2022-11-07T05:06:49.650Z,13.40
2022-11-07T05:09:20.190Z,13.48
2022-11-07T05:11:50.290Z,12.63
2022-11-07T05:14:20.489Z,12.60
2022-11-07T05:16:50.611Z,12.60
2022-11-07T05:19:21.209Z,13.43
2022-11-07T05:22:13.923Z,11.98
2022-11-07T05:24:44.161Z,11.65
2022-11-07T05:27:21.191Z,11.40
2022-11-07T05:29:51.490Z,12.18
2022-11-07T05:32:22.850Z,14.38
2022-11-07T05:34:55.618Z,12.65
2022-11-07T05:37:25.696Z,12.43
2022-11-07T05:39:56.055Z,12.40
2022-11-07T05:42:26.455Z,14.43
2022-11-07T05:44:56.663Z,15.48
2022-11-07T05:47:26.854Z,14.10
2022-11-07T05:49:56.974Z,13.82
2022-11-07T05:52:27.111Z,12.90
2022-11-07T05:54:57.441Z,13.70
2022-11-07T05:57:27.845Z,13.35
2022-11-07T05:59:58.080Z,12.27
2022-11-07T06:02:31.227Z,13.30
2022-11-07T06:05:01.491Z,12.60
2022-11-07T06:07:32.502Z,12.63
2022-11-07T06:10:02.943Z,11.05
2022-11-07T06:12:33.274Z,11.70
2022-11-07T06:15:03.667Z,11.95
2022-11-07T06:17:34.467Z,11.55
2022-11-07T06:20:04.871Z,12.32
2022-11-07T06:22:35.365Z,11.02
2022-11-07T06:25:53.623Z,12.98
2022-11-07T06:28:23.660Z,11.77
2022-11-07T06:30:53.728Z,10.55
2022-11-07T06:33:27.308Z,12.30
2022-11-07T06:35:57.458Z,13.15
2022-11-07T06:38:27.684Z,12.52
2022-11-07T06:40:57.857Z,12.77
2022-11-07T06:43:32.822Z,12.35
2022-11-07T06:46:04.528Z,14.10
2022-11-07T06:48:34.485Z,14.75
2022-11-07T06:51:05.259Z,13.30
2022-11-07T06:53:39.726Z,14.50
2022-11-07T06:56:12.145Z,10.68
2022-11-07T06:58:42.236Z,11.38
2022-11-07T07:01:14.751Z,11.48
2022-11-07T07:03:44.974Z,11.10
2022-11-07T07:06:16.574Z,10.45
2022-11-07T07:08:46.694Z,11.00
2022-11-07T07:11:24.235Z,10.25
2022-11-07T07:13:59.621Z,10.77
2022-11-07T07:16:32.192Z,11.55
2022-11-07T07:19:02.415Z,11.32
2022-11-07T07:21:32.459Z,11.77
2022-11-07T07:24:02.498Z,14.65
2022-11-07T07:26:32.698Z,14.90
2022-11-07T07:29:04.406Z,16.35
2022-11-07T07:31:34.659Z,16.60
2022-11-07T07:34:04.710Z,13.60
2022-11-07T07:36:36.848Z,14.15
2022-11-07T07:39:07.035Z,15.15
2022-11-07T07:41:40.865Z,14.05
2022-11-07T07:44:10.954Z,14.00
2022-11-07T07:46:41.085Z,15.10
2022-11-07T07:49:11.478Z,16.00
2022-11-07T07:51:41.964Z,13.85
2022-11-07T07:54:16.647Z,14.90
2022-11-07T07:56:46.663Z,13.23
2022-11-07T07:59:16.647Z,13.23
2022-11-07T08:01:48.792Z,13.55
2022-11-07T08:04:20.915Z,12.13
2022-11-07T08:06:51.041Z,11.80
2022-11-07T08:09:21.238Z,12.25
2022-11-07T08:11:51.375Z,12.45
2022-11-07T08:14:21.541Z,11.20
2022-11-07T08:16:51.609Z,11.63
2022-11-07T08:19:21.679Z,13.07
2022-11-07T08:21:51.921Z,13.10
2022-11-07T08:24:22.500Z,12.25
2022-11-07T08:26:55.894Z,12.35
2022-11-07T08:29:27.422Z,13.05
2022-11-07T08:31:57.820Z,13.02
2022-11-07T08:34:27.952Z,13.60
2022-11-07T08:36:57.960Z,12.70
2022-11-07T08:39:28.686Z,12.70
2022-11-07T08:41:59.100Z,14.32
2022-11-07T08:44:29.156Z,10.18
2022-11-07T08:47:00.515Z,9.13
2022-11-07T08:49:33.317Z,9.43
2022-11-07T08:52:03.407Z,8.32
2022-11-07T08:54:34.916Z,8.95
2022-11-07T08:57:08.253Z,10.85
2022-11-07T08:59:40.163Z,14.63
2022-11-07T09:03:08.341Z,16.45
2022-11-07T09:05:03.295Z,15.05
2022-11-07T09:07:34.842Z,15.38
2022-11-07T09:10:08.403Z,14.73
2022-11-07T09:12:48.908Z,15.95
2022-11-07T09:15:20.442Z,12.93
2022-11-07T09:17:56.988Z,14.82
2022-11-07T09:20:27.195Z,14.15
2022-11-07T09:23:04.586Z,14.07
2022-11-07T09:25:34.571Z,16.33
2022-11-07T09:28:05.198Z,15.07
2022-11-07T09:30:35.583Z,14.63
2022-11-07T09:33:08.678Z,13.85
2022-11-07T09:36:09.975Z,14.57
2022-11-07T09:38:42.931Z,14.50
2022-11-07T09:41:15.950Z,16.90
2022-11-07T09:43:52.631Z,14.48
2022-11-07T09:46:25.786Z,16.25
2022-11-07T09:49:01.397Z,14.13
2022-11-07T09:51:35.384Z,14.87
2022-11-07T09:54:24.820Z,14.15
2022-11-07T09:56:55.037Z,14.15
2022-11-07T09:59:30.089Z,13.38
2022-11-07T10:02:00.170Z,13.02
2022-11-07T10:04:33.638Z,13.40
2022-11-07T10:07:09.466Z,13.77
2022-11-07T10:09:39.813Z,14.32
2022-11-07T10:12:10.165Z,13.88
2022-11-07T10:14:47.061Z,14.25
2022-11-07T10:20:09.221Z,14.70
2022-11-07T10:22:49.271Z,17.55
2022-11-07T10:25:41.642Z,19.75
2022-11-07T10:28:15.317Z,21.70
2022-11-07T10:30:46.435Z,20.02
2022-11-07T10:33:23.187Z,19.67
2022-11-07T10:36:17.904Z,21.08
2022-11-07T10:38:48.240Z,20.80
2022-11-07T10:41:18.867Z,22.83
2022-11-07T10:43:57.785Z,23.08
2022-11-07T10:46:50.210Z,21.40
2022-11-07T10:49:27.388Z,26.75
2022-11-07T10:51:58.069Z,28.38
2022-11-07T10:54:28.233Z,26.88
2022-11-07T10:57:07.267Z,27.30
2022-11-07T10:59:38.356Z,26.63
2022-11-07T11:02:40.738Z,23.40
2022-11-07T11:05:30.117Z,21.02
2022-11-07T11:08:00.589Z,21.48
2022-11-07T11:10:32.234Z,24.92
2022-11-07T11:13:02.298Z,25.40
2022-11-07T11:15:35.749Z,25.20
2022-11-07T11:18:07.363Z,23.85
2022-11-07T11:20:38.967Z,31.33
2022-11-07T11:23:09.722Z,37.25
2022-11-07T11:25:49.897Z,35.45
2022-11-07T11:28:24.606Z,36.85
2022-11-07T11:31:00.527Z,35.60
2022-11-07T11:33:33.309Z,28.98
2022-11-07T11:36:09.949Z,24.38
2022-11-07T11:38:40.052Z,19.95
2022-11-07T11:41:12.752Z,19.23
2022-11-07T11:43:53.936Z,18.02
2022-11-07T11:46:26.850Z,17.88
2022-11-07T11:49:02.203Z,17.92
2022-11-07T11:51:45.880Z,21.10
2022-11-07T11:54:16.948Z,27.98
2022-11-07T11:56:54.003Z,38.80
2022-11-07T12:01:56.999Z,53.10
2022-11-07T12:04:40.338Z,62.33
2022-11-07T12:07:29.122Z,47.80
2022-11-07T12:10:03.622Z,50.08
2022-11-07T12:12:48.529Z,47.78
2022-11-07T12:15:18.526Z,40.60
2022-11-07T12:17:48.488Z,45.50
2022-11-07T12:20:20.805Z,42.78
2022-11-07T12:23:06.126Z,41.38
2022-11-07T12:25:54.371Z,41.40
2022-11-07T12:28:37.658Z,34.65
2022-11-07T12:31:21.344Z,34.22
2022-11-07T12:34:11.493Z,30.58
2022-11-07T12:36:41.755Z,28.88
2022-11-07T12:39:24.258Z,27.52
2022-11-07T12:42:20.250Z,22.80
2022-11-07T12:45:08.777Z,21.17
2022-11-07T12:47:57.457Z,24.73
2022-11-07T12:50:30.779Z,26.40
2022-11-07T12:53:04.972Z,24.58
2022-11-07T12:55:41.212Z,25.13
2022-11-07T12:58:15.865Z,27.75
2022-11-07T13:00:46.257Z,26.63
2022-11-07T13:03:19.363Z,28.08
2022-11-07T13:05:52.625Z,24.77
2022-11-07T13:08:30.959Z,26.27
2022-11-07T13:11:19.531Z,24.08
2022-11-07T13:13:58.981Z,25.50
2022-11-07T13:16:30.052Z,27.42
2022-11-07T13:19:20.120Z,28.27
2022-11-07T13:22:00.455Z,27.17
2022-11-07T13:24:31.239Z,26.40
2022-11-07T13:27:01.560Z,25.80
2022-11-07T13:29:34.472Z,24.35
2022-11-07T13:32:08.214Z,25.83
2022-11-07T13:34:45.542Z,27.55
2022-11-07T13:37:19.949Z,27.58
2022-11-07T13:39:52.540Z,28.55
2022-11-07T13:42:22.573Z,27.30
2022-11-07T13:44:56.472Z,31.02
2022-11-07T13:47:32.633Z,28.20
2022-11-07T13:50:05.393Z,30.40
2022-11-07T13:52:40.925Z,26.73
2022-11-07T13:55:18.301Z,23.95
2022-11-07T13:57:59.071Z,23.77
2022-11-07T14:00:32.638Z,21.92
2022-11-07T14:07:26.555Z,23.13
2022-11-07T14:10:03.293Z,28.17
2022-11-07T14:12:33.753Z,26.05
2022-11-07T14:15:03.714Z,25.00
2022-11-07T14:17:36.005Z,25.95
2022-11-07T14:20:31.834Z,26.27
2022-11-07T14:23:11.807Z,27.02
2022-11-07T14:28:26.594Z,26.58
2022-11-07T14:30:58.061Z,25.42
2022-11-07T14:36:14.228Z,25.92
2022-11-07T14:41:31.308Z,27.90
2022-11-07T14:44:02.426Z,27.60
2022-11-07T14:46:32.369Z,25.08
2022-11-07T14:49:02.614Z,26.02
2022-11-07T14:51:32.815Z,25.52
2022-11-07T14:54:04.929Z,25.00
2022-11-07T14:56:36.766Z,24.58
2022-11-07T14:59:07.184Z,26.38
2022-11-07T15:01:37.478Z,26.52
2022-11-07T15:04:19.366Z,27.63
2022-11-07T15:06:49.657Z,27.55
2022-11-07T15:09:34.751Z,26.90
2022-11-07T15:12:05.402Z,34.40
2022-11-07T15:14:37.428Z,30.30
2022-11-07T15:17:07.834Z,40.75
2022-11-07T15:25:43.116Z,20.52
2022-11-07T15:28:30.011Z,21.10
2022-11-07T15:31:02.811Z,20.05
2022-11-07T15:33:33.443Z,20.30
2022-11-07T15:36:04.208Z,17.77
2022-11-07T15:38:35.033Z,17.98
2022-11-07T15:41:06.818Z,17.15
2022-11-07T15:43:37.224Z,19.60
2022-11-07T15:46:08.714Z,20.83
2022-11-07T15:48:41.335Z,23.15
2022-11-07T15:51:12.642Z,25.20
2022-11-07T15:53:43.081Z,26.02
2022-11-07T15:56:16.552Z,28.95
2022-11-07T15:58:47.013Z,29.33
2022-11-07T16:01:17.140Z,28.92
2022-11-07T16:03:47.152Z,28.15
2022-11-07T16:06:18.538Z,28.55
2022-11-07T16:08:48.552Z,30.73
2022-11-07T16:11:18.476Z,30.40
2022-11-07T16:13:48.431Z,29.02
2022-11-07T16:16:22.500Z,30.85
2022-11-07T16:18:53.554Z,25.15
2022-11-07T16:21:29.757Z,26.50
2022-11-07T16:23:59.770Z,21.88
2022-11-07T16:26:37.734Z,21.92
2022-11-07T16:29:08.154Z,18.27
2022-11-07T16:31:38.264Z,17.25
2022-11-07T16:34:08.868Z,15.98
2022-11-07T16:36:39.560Z,18.10
2022-11-07T16:39:10.456Z,18.60
2022-11-07T16:41:40.868Z,20.08
2022-11-07T16:44:11.565Z,16.27
2022-11-07T16:46:41.962Z,15.00
2022-11-07T16:49:33.608Z,14.77
2022-11-07T16:52:04.594Z,16.20
2022-11-07T16:54:34.551Z,16.80
2022-11-07T16:57:04.499Z,15.52
2022-11-07T16:59:34.602Z,14.55
2022-11-07T17:02:08.900Z,15.63
2022-11-07T17:07:14.992Z,13.93
2022-11-07T17:09:45.041Z,14.52
2022-11-07T17:12:15.494Z,15.57
2022-11-07T17:14:48.557Z,15.20
2022-11-07T17:17:22.041Z,14.23
2022-11-07T17:19:53.883Z,14.43
2022-11-07T17:22:27.346Z,16.48
2022-11-07T17:24:57.740Z,16.20
2022-11-07T17:27:30.265Z,15.73
2022-11-07T17:30:03.197Z,17.58
2022-11-07T17:32:35.980Z,18.65
2022-11-07T17:35:30.558Z,19.42
2022-11-07T17:37:56.294Z,16.73
2022-11-07T17:40:30.486Z,21.40
2022-11-07T17:43:00.741Z,22.42
2022-11-07T17:45:30.835Z,23.13
2022-11-07T17:48:00.868Z,22.88
2022-11-07T17:50:30.904Z,21.52
2022-11-07T17:53:01.521Z,23.45
2022-11-07T17:55:31.661Z,25.13
2022-11-07T17:58:02.112Z,22.10
2022-11-07T18:00:32.714Z,23.20
2022-11-07T18:03:03.161Z,23.52
2022-11-07T18:05:35.848Z,21.58
2022-11-07T18:08:07.382Z,20.40
2022-11-07T18:10:41.924Z,19.90
2022-11-07T18:13:12.030Z,17.25
2022-11-07T18:15:42.633Z,18.20
2022-11-07T18:18:12.679Z,15.95
2022-11-07T18:20:42.630Z,14.65
2022-11-07T18:23:12.987Z,15.55
2022-11-07T18:25:43.344Z,14.10
2022-11-07T18:28:13.826Z,16.30
2022-11-07T18:30:47.478Z,16.13
2022-11-07T18:33:21.279Z,17.65
2022-11-07T18:35:51.804Z,19.25
2022-11-07T18:38:21.793Z,20.15
2022-11-07T18:40:58.428Z,17.95
2022-11-07T18:43:29.094Z,20.00
2022-11-07T18:45:59.132Z,16.95
2022-11-07T18:48:30.666Z,16.25
2022-11-07T18:51:01.754Z,19.50
2022-11-07T18:53:32.570Z,20.35
2022-11-07T18:56:03.438Z,18.63
2022-11-07T18:58:33.947Z,19.13
2022-11-07T19:01:04.697Z,16.55
2022-11-07T19:03:35.189Z,19.77
2022-11-07T19:06:11.828Z,18.90
2022-11-07T19:08:42.190Z,21.88
2022-11-07T19:11:13.023Z,22.95
2022-11-07T19:13:43.573Z,23.52
2022-11-07T19:16:15.619Z,27.40
2022-11-07T19:18:49.476Z,23.65
2022-11-07T19:21:21.604Z,23.80
2022-11-07T19:23:52.023Z,23.90
2022-11-07T19:26:22.083Z,20.65
2022-11-07T19:28:55.093Z,19.92
2022-11-07T19:31:25.293Z,17.15
2022-11-07T19:33:55.369Z,16.60
2022-11-07T19:36:26.078Z,15.40
2022-11-07T19:38:56.815Z,16.50
2022-11-07T19:41:26.750Z,16.25
2022-11-07T19:43:58.540Z,15.15
2022-11-07T19:46:28.577Z,15.50
2022-11-07T19:48:58.615Z,16.60
2022-11-07T19:51:29.175Z,17.77
2022-11-07T19:54:00.144Z,16.55
2022-11-07T19:56:31.894Z,14.32
2022-11-07T19:59:02.664Z,16.08
2022-11-07T20:01:34.378Z,17.15
2022-11-07T20:04:05.960Z,15.15
2022-11-07T20:06:38.086Z,15.80
2022-11-07T20:09:11.838Z,14.82
2022-11-07T20:11:41.840Z,12.88
2022-11-07T20:14:13.597Z,14.15
2022-11-07T20:16:43.798Z,14.07
2022-11-07T20:19:13.759Z,13.43
2022-11-07T20:21:44.764Z,14.43
2022-11-07T20:24:14.787Z,14.77
2022-11-07T20:26:47.002Z,12.90
2022-11-07T20:29:19.695Z,13.40
2022-11-07T20:31:52.582Z,14.07
2022-11-07T20:34:22.582Z,13.27
2022-11-07T20:36:55.154Z,14.38
2022-11-07T20:39:25.581Z,11.98
2022-11-07T20:41:55.607Z,13.30
2022-11-07T20:44:25.597Z,12.88
2022-11-07T20:46:58.275Z,13.20
2022-11-07T20:49:28.593Z,13.65
2022-11-07T20:51:59.483Z,14.25
2022-11-07T20:54:31.172Z,17.63
2022-11-07T20:57:01.602Z,16.08
2022-11-07T20:59:37.035Z,19.10
2022-11-07T21:02:07.199Z,17.25
2022-11-07T21:04:56.257Z,15.05
2022-11-07T21:07:27.746Z,16.25
2022-11-07T21:09:57.832Z,15.80
2022-11-07T21:12:27.833Z,13.50
2022-11-07T21:14:57.781Z,13.35
2022-11-07T21:17:28.176Z,14.70
2022-11-07T21:19:58.325Z,13.55
2022-11-07T21:22:29.504Z,13.75
2022-11-07T21:25:00.492Z,15.20
2022-11-07T21:27:30.471Z,21.52
2022-11-07T21:30:00.887Z,16.33
2022-11-07T21:32:30.943Z,13.98
2022-11-07T21:35:00.940Z,12.25
2022-11-07T21:37:30.896Z,13.40
2022-11-07T21:40:00.863Z,13.85
2022-11-07T21:42:31.808Z,12.68
2022-11-07T21:45:01.775Z,13.13
2022-11-07T21:47:32.185Z,13.02
2022-11-07T21:50:17.769Z,11.13
2022-11-07T21:52:52.398Z,10.45
2022-11-07T21:55:22.446Z,11.18
2022-11-07T21:57:52.453Z,10.70
2022-11-07T22:00:22.534Z,11.07
2022-11-07T22:02:52.555Z,11.55
2022-11-07T22:05:22.606Z,12.00
2022-11-07T22:07:52.574Z,10.20
2022-11-07T22:10:22.488Z,10.52
2022-11-07T22:12:53.522Z,12.07
2022-11-07T22:15:23.543Z,12.82
2022-11-07T22:17:53.672Z,14.40
2022-11-07T22:20:26.933Z,12.98
2022-11-07T22:22:56.892Z,13.80
2022-11-07T22:25:27.131Z,13.57
2022-11-07T22:27:57.120Z,11.82
2022-11-07T22:30:27.073Z,12.18
2022-11-07T22:33:00.034Z,12.27
2022-11-07T22:35:30.251Z,11.60
2022-11-07T22:38:00.362Z,11.48
2022-11-07T22:40:30.389Z,10.23
2022-11-07T22:43:00.412Z,9.75
2022-11-07T22:45:30.538Z,9.82
2022-11-07T22:48:00.499Z,7.65
2022-11-07T22:50:30.457Z,10.02
2022-11-07T22:53:00.483Z,9.35
2022-11-07T22:55:31.616Z,10.57
2022-11-07T22:58:01.942Z,9.27
2022-11-07T23:00:32.147Z,9.65
2022-11-07T23:03:02.124Z,9.18
2022-11-07T23:05:32.191Z,10.65
2022-11-07T23:08:02.160Z,9.27
2022-11-07T23:10:32.053Z,9.63
2022-11-07T23:13:04.945Z,9.57
2022-11-07T23:15:35.049Z,10.50
2022-11-07T23:18:04.964Z,10.13
2022-11-07T23:20:53.268Z,10.07
2022-11-07T23:23:23.232Z,9.65
2022-11-07T23:25:53.393Z,11.75
2022-11-07T23:28:23.312Z,11.75
2022-11-07T23:30:53.842Z,11.23
2022-11-07T23:33:25.175Z,10.25
2022-11-07T23:35:55.972Z,11.90
2022-11-07T23:38:28.002Z,11.02
2022-11-07T23:40:58.049Z,10.18
2022-11-07T23:43:28.719Z,9.48
2022-11-07T23:46:17.720Z,10.55
2022-11-07T23:49:09.406Z,12.95
2022-11-07T23:51:46.322Z,11.68
2022-11-07T23:54:35.645Z,12.13
2022-11-07T23:57:05.671Z,15.68
2022-11-07T23:59:54.828Z,15.95
